createdAt,value
2018-04-20T00:00:17.686Z,61.08
2018-04-20T00:00:58.136Z,60.6
2018-04-20T00:01:38.549Z,60.5
2018-04-20T00:02:18.900Z,60.5
2018-04-20T00:02:59.288Z,60.89
2018-04-20T00:03:39.689Z,60.89
2018-04-20T00:04:20.116Z,60.89
2018-04-20T00:05:00.486Z,61.08
2018-04-20T00:05:40.891Z,61.37
2018-04-20T00:06:21.254Z,60.99
2018-04-20T00:07:01.623Z,61.18
2018-04-20T00:07:42.074Z,61.27
2018-04-20T00:08:22.457Z,61.46
2018-04-20T00:09:02.807Z,61.37
2018-04-20T00:09:43.226Z,61.37
2018-04-20T00:10:23.602Z,61.46
2018-04-20T00:11:04.065Z,61.56
2018-04-20T00:11:44.363Z,61.56
2018-04-20T00:12:24.812Z,61.46
2018-04-20T00:13:05.161Z,61.46
2018-04-20T00:13:45.552Z,61.46
2018-04-20T00:14:25.945Z,61.63
2018-04-20T00:15:06.395Z,62.59
2018-04-20T00:15:46.739Z,62.39
2018-04-20T00:16:27.273Z,62.49
2018-04-20T00:17:07.652Z,62.59
2018-04-20T00:17:48.013Z,62.49
2018-04-20T00:18:28.424Z,62.68
2018-04-20T00:19:08.803Z,63.26
2018-04-20T00:19:49.280Z,63.06
2018-04-20T00:20:29.656Z,62.74
2018-04-20T00:21:10.016Z,62.68
2018-04-20T00:21:50.462Z,62.77
2018-04-20T00:22:30.819Z,63.16
2018-04-20T00:23:11.201Z,62.77
2018-04-20T00:23:51.583Z,62.59
2018-04-20T00:24:32.040Z,63.16
2018-04-20T00:25:12.447Z,62.68
2018-04-20T00:25:52.751Z,62.49
2018-04-20T00:26:33.142Z,62.59
2018-04-20T00:27:13.583Z,62.49
2018-04-20T00:27:53.918Z,63.06
2018-04-20T00:28:34.343Z,62.87
2018-04-20T00:29:14.737Z,62.77
2018-04-20T00:29:55.145Z,62.96
2018-04-20T00:30:35.558Z,62.96
2018-04-20T00:31:15.955Z,62.65
2018-04-20T00:31:56.360Z,63.6
2018-04-20T00:32:36.798Z,63.51
2018-04-20T00:33:17.220Z,63.8
2018-04-20T00:33:57.609Z,63.03
2018-04-20T00:34:37.970Z,63.51
2018-04-20T00:35:18.393Z,63.42
2018-04-20T00:35:58.805Z,63.32
2018-04-20T00:36:39.194Z,63.22
2018-04-20T00:37:19.615Z,63.03
2018-04-20T00:38:00.043Z,63.22
2018-04-20T00:38:40.378Z,62.84
2018-04-20T00:39:20.731Z,62.68
2018-04-20T00:40:01.145Z,62.93
2018-04-20T00:40:41.549Z,62.68
2018-04-20T00:41:21.930Z,62.36
2018-04-20T00:42:02.373Z,62.39
2018-04-20T00:42:42.723Z,62.49
2018-04-20T00:43:23.124Z,61.24
2018-04-20T00:44:03.505Z,61.53
2018-04-20T00:44:43.950Z,61.53
2018-04-20T00:45:24.309Z,61.53
2018-04-20T00:46:04.756Z,61.15
2018-04-20T00:46:45.120Z,61.05
2018-04-20T00:47:25.548Z,60.96
2018-04-20T00:48:05.941Z,61.34
2018-04-20T00:48:46.302Z,61.05
2018-04-20T00:49:26.732Z,60.38
2018-04-20T00:50:07.130Z,60.57
2018-04-20T00:50:47.472Z,60.09
2018-04-20T00:51:27.884Z,60.47
2018-04-20T00:52:08.313Z,60.47
2018-04-20T00:52:48.709Z,60.19
2018-04-20T00:53:29.134Z,60.76
2018-04-20T00:54:09.519Z,60.57
2018-04-20T00:54:49.872Z,60.47
2018-04-20T00:55:30.235Z,60.47
2018-04-20T00:56:10.676Z,61.15
2018-04-20T00:56:51.106Z,60.67
2018-04-20T00:57:31.433Z,60.67
2018-04-20T00:58:11.841Z,60.86
2018-04-20T00:58:52.244Z,60.76
2018-04-20T00:59:32.647Z,60.96
2018-04-20T01:00:13.114Z,60.47
2018-04-20T01:00:53.483Z,60.67
2018-04-20T01:01:33.879Z,61.05
2018-04-20T01:02:14.231Z,60.47
2018-04-20T01:02:54.653Z,60.57
2018-04-20T01:03:35.027Z,60.57
2018-04-20T01:04:15.412Z,60.28
2018-04-20T01:04:55.802Z,60.28
2018-04-20T01:05:36.199Z,60.19
2018-04-20T01:06:16.626Z,60.67
2018-04-20T01:06:56.991Z,60.57
2018-04-20T01:07:37.386Z,60.67
2018-04-20T01:08:17.756Z,60.28
2018-04-20T01:08:58.162Z,60.57
2018-04-20T01:09:38.566Z,60.67
2018-04-20T01:10:18.984Z,60.86
2018-04-20T01:10:59.473Z,60.76
2018-04-20T01:11:39.844Z,60.57
2018-04-20T01:12:20.208Z,60.47
2018-04-20T01:13:00.583Z,60.96
2018-04-20T01:13:40.972Z,60.76
2018-04-20T01:14:21.355Z,60.76
2018-04-20T01:15:01.762Z,60.86
2018-04-20T01:15:42.159Z,60.86
2018-04-20T01:16:22.564Z,60.86
2018-04-20T01:17:03.011Z,60.76
2018-04-20T01:17:43.333Z,61.05
2018-04-20T01:18:23.760Z,60.57
2018-04-20T01:19:04.158Z,60.86
2018-04-20T01:19:44.526Z,60.96
2018-04-20T01:20:24.950Z,61.15
2018-04-20T01:21:05.352Z,61.24
2018-04-20T01:21:45.752Z,61.34
2018-04-20T01:22:26.266Z,61.53
2018-04-20T01:23:06.544Z,61.4
2018-04-20T01:23:47.036Z,61.6
2018-04-20T01:24:27.416Z,61.4
2018-04-20T01:25:07.736Z,61.63
2018-04-20T01:25:48.141Z,61.5
2018-04-20T01:26:28.651Z,61.88
2018-04-20T01:27:08.970Z,62.26
2018-04-20T01:27:49.350Z,62.65
2018-04-20T01:28:29.775Z,62.46
2018-04-20T01:29:10.184Z,62.84
2018-04-20T01:29:50.528Z,62.74
2018-04-20T01:30:30.897Z,63.42
2018-04-20T01:31:11.271Z,64.09
2018-04-20T01:31:51.708Z,64.47
2018-04-20T01:32:32.112Z,64.09
2018-04-20T01:33:12.501Z,64.66
2018-04-20T01:33:52.825Z,65.23
2018-04-20T01:34:33.200Z,65.14
2018-04-20T01:35:13.592Z,64.95
2018-04-20T01:35:53.994Z,65.23
2018-04-20T01:36:34.338Z,65.33
2018-04-20T01:37:14.714Z,65.05
2018-04-20T01:37:55.112Z,65.33
2018-04-20T01:38:35.557Z,65.33
2018-04-20T01:39:15.988Z,65.42
2018-04-20T01:39:56.309Z,65.14
2018-04-20T01:40:36.767Z,65.42
2018-04-20T01:41:17.114Z,65.62
2018-04-20T01:41:57.561Z,65.81
2018-04-20T01:42:37.916Z,65.52
2018-04-20T01:43:18.320Z,65.42
2018-04-20T01:43:58.753Z,65.14
2018-04-20T01:44:39.082Z,65.71
2018-04-20T01:45:19.442Z,65.81
2018-04-20T01:45:59.873Z,66.09
2018-04-20T01:46:40.259Z,66.48
2018-04-20T01:47:20.670Z,66.74
2018-04-20T01:48:01.074Z,66.64
2018-04-20T01:48:41.534Z,67.02
2018-04-20T01:49:21.931Z,67.31
2018-04-20T01:50:02.277Z,66.93
2018-04-20T01:50:42.754Z,67.21
2018-04-20T01:51:23.128Z,67.37
2018-04-20T01:52:03.580Z,67.85
2018-04-20T01:52:43.912Z,68.23
2018-04-20T01:53:24.608Z,68.42
2018-04-20T01:54:04.760Z,68.52
2018-04-20T01:54:45.141Z,68.62
2018-04-20T01:55:25.653Z,68.96
2018-04-20T01:56:05.989Z,69.25
2018-04-20T01:56:46.357Z,69.35
2018-04-20T01:57:26.906Z,69.35
2018-04-20T01:58:07.384Z,69.44
2018-04-20T01:58:47.767Z,70.01
2018-04-20T01:59:28.065Z,70.59
2018-04-20T02:00:08.472Z,70.5
2018-04-20T02:00:48.978Z,70.4
2018-04-20T02:01:29.255Z,70.78
2018-04-20T02:02:09.639Z,70.97
2018-04-20T02:02:50.108Z,71.07
2018-04-20T02:03:30.455Z,71.07
2018-04-20T02:04:10.810Z,70.97
2018-04-20T02:04:51.214Z,70.87
2018-04-20T02:05:31.588Z,70.87
2018-04-20T02:06:11.976Z,70.97
2018-04-20T02:06:52.368Z,70.94
2018-04-20T02:07:32.810Z,70.78
2018-04-20T02:08:13.209Z,70.68
2018-04-20T02:08:53.535Z,71.07
2018-04-20T02:09:33.951Z,71.36
2018-04-20T02:10:14.370Z,71.45
2018-04-20T02:10:54.767Z,71.45
2018-04-20T02:11:35.126Z,71.07
2018-04-20T02:12:15.562Z,71.07
2018-04-20T02:12:55.969Z,70.78
2018-04-20T02:13:36.370Z,70.87
2018-04-20T02:14:16.693Z,70.59
2018-04-20T02:14:57.096Z,69.92
2018-04-20T02:15:37.577Z,69.82
2018-04-20T02:16:17.940Z,69.54
2018-04-20T02:16:58.297Z,69.54
2018-04-20T02:17:38.722Z,69.82
2018-04-20T02:18:19.121Z,69.73
2018-04-20T02:18:59.548Z,69.64
2018-04-20T02:19:39.926Z,69.54
2018-04-20T02:20:20.276Z,69.73
2018-04-20T02:21:00.694Z,69.73
2018-04-20T02:21:41.133Z,69.73
2018-04-20T02:22:21.529Z,69.64
2018-04-20T02:23:01.919Z,69.64
2018-04-20T02:23:42.330Z,70.21
2018-04-20T02:24:22.703Z,69.92
2018-04-20T02:25:03.140Z,70.21
2018-04-20T02:25:43.466Z,70.5
2018-04-20T02:26:23.848Z,69.92
2018-04-20T02:27:04.255Z,70.01
2018-04-20T02:27:44.715Z,69.64
2018-04-20T02:28:25.057Z,69.64
2018-04-20T02:29:05.489Z,69
2018-04-20T02:29:45.904Z,69.29
2018-04-20T02:30:26.262Z,69.19
2018-04-20T02:31:06.760Z,68.9
2018-04-20T02:31:47.123Z,68.71
2018-04-20T02:32:27.513Z,69
2018-04-20T02:33:07.902Z,69
2018-04-20T02:33:48.350Z,69.09
2018-04-20T02:34:28.661Z,69
2018-04-20T02:35:09.070Z,68.9
2018-04-20T02:35:49.446Z,69
2018-04-20T02:36:29.874Z,68.62
2018-04-20T02:37:10.266Z,68.23
2018-04-20T02:37:50.655Z,68.42
2018-04-20T02:38:31.073Z,68.13
2018-04-20T02:39:11.448Z,68.33
2018-04-20T02:39:51.911Z,67.66
2018-04-20T02:40:32.243Z,67.76
2018-04-20T02:41:12.654Z,67.66
2018-04-20T02:41:53.059Z,67.76
2018-04-20T02:42:33.418Z,67.85
2018-04-20T02:43:13.829Z,67.66
2018-04-20T02:43:54.194Z,67.56
2018-04-20T02:44:34.651Z,68.04
2018-04-20T02:45:15.008Z,67.66
2018-04-20T02:45:55.388Z,67.56
2018-04-20T02:46:35.803Z,68.13
2018-04-20T02:47:16.238Z,68.23
2018-04-20T02:47:56.619Z,68.87
2018-04-20T02:48:36.950Z,69.25
2018-04-20T02:49:17.333Z,69.15
2018-04-20T02:49:57.683Z,69.25
2018-04-20T02:50:38.118Z,69.06
2018-04-20T02:51:18.509Z,69.25
2018-04-20T02:51:58.918Z,68.77
2018-04-20T02:52:39.322Z,68.77
2018-04-20T02:53:19.658Z,68.96
2018-04-20T02:54:00.109Z,68.87
2018-04-20T02:54:40.512Z,68.58
2018-04-20T02:55:20.975Z,69.15
2018-04-20T02:56:01.333Z,69.44
2018-04-20T02:56:41.684Z,69.73
2018-04-20T02:57:22.076Z,69.54
2018-04-20T02:58:02.495Z,69.64
2018-04-20T02:58:42.896Z,69.64
2018-04-20T02:59:23.289Z,69.64
2018-04-20T03:00:03.724Z,69.44
2018-04-20T03:00:44.319Z,69.25
2018-04-20T03:01:24.526Z,69.15
2018-04-20T03:02:04.911Z,69.06
2018-04-20T03:02:45.509Z,68.1
2018-04-20T03:03:26.033Z,68.1
2018-04-20T03:04:06.380Z,68.1
2018-04-20T03:04:46.769Z,67.53
2018-04-20T03:05:27.208Z,68.39
2018-04-20T03:06:07.601Z,68.39
2018-04-20T03:06:48.296Z,68.49
2018-04-20T03:07:28.748Z,68.77
2018-04-20T03:08:09.150Z,68.68
2018-04-20T03:08:49.986Z,68.87
2018-04-20T03:09:30.134Z,69.06
2018-04-20T03:10:10.670Z,68.96
2018-04-20T03:10:51.737Z,69.82
2018-04-20T03:11:31.566Z,69.73
2018-04-20T03:12:11.869Z,69.64
2018-04-20T03:12:52.374Z,68.87
2018-04-20T03:13:32.776Z,68.96
2018-04-20T03:14:13.081Z,69.15
2018-04-20T03:14:53.557Z,68.87
2018-04-20T03:15:33.918Z,69.15
2018-04-20T03:16:14.459Z,69.15
2018-04-20T03:16:54.730Z,68.77
2018-04-20T03:17:35.126Z,68.2
2018-04-20T03:18:15.818Z,68.01
2018-04-20T03:18:56.178Z,68.1
2018-04-20T03:19:36.544Z,68.1
2018-04-20T03:20:16.989Z,67.63
2018-04-20T03:20:57.414Z,67.91
2018-04-20T03:21:37.784Z,67.34
2018-04-20T03:22:21.469Z,67.34
2018-04-20T03:23:01.447Z,67.63
2018-04-20T03:23:41.937Z,67.72
2018-04-20T03:24:22.497Z,67.34
2018-04-20T03:25:02.812Z,67.14
2018-04-20T03:25:43.505Z,67.14
2018-04-20T03:26:23.685Z,66.76
2018-04-20T03:27:04.329Z,66.96
2018-04-20T03:27:44.890Z,66.38
2018-04-20T03:28:25.434Z,66
2018-04-20T03:29:05.890Z,66
2018-04-20T03:29:46.220Z,65.52
2018-04-20T03:30:26.648Z,65.33
2018-04-20T03:31:07.042Z,65.33
2018-04-20T03:31:47.440Z,64.66
2018-04-20T03:33:45.515Z,64.31
2018-04-20T03:34:28.030Z,64.02
2018-04-20T03:35:08.166Z,63.45
2018-04-20T03:35:48.597Z,63.45
2018-04-20T03:36:28.951Z,63.83
2018-04-20T03:37:09.351Z,63.83
2018-04-20T03:37:49.955Z,63.83
2018-04-20T03:38:30.381Z,63.45
2018-04-20T03:39:10.773Z,63.73
2018-04-20T03:39:51.203Z,63.64
2018-04-20T03:40:31.607Z,63.39
2018-04-20T03:41:11.991Z,63.48
2018-04-20T03:41:52.423Z,62.81
2018-04-20T03:42:32.796Z,62.43
2018-04-20T03:43:13.167Z,63.19
2018-04-20T03:43:53.604Z,63.19
2018-04-20T03:44:33.973Z,62.14
2018-04-20T03:45:14.457Z,62.43
2018-04-20T03:45:54.773Z,61.94
2018-04-20T03:46:35.186Z,62.23
2018-04-20T03:47:15.600Z,61.85
2018-04-20T03:47:55.986Z,62.23
2018-04-20T03:48:36.441Z,62.52
2018-04-20T03:49:16.815Z,62.62
2018-04-20T03:49:57.179Z,62.52
2018-04-20T03:50:37.553Z,62.52
2018-04-20T03:51:17.956Z,62.33
2018-04-20T03:51:58.363Z,62.71
2018-04-20T03:52:38.752Z,62.62
2018-04-20T03:53:19.191Z,62.71
2018-04-20T03:53:59.551Z,62.46
2018-04-20T03:54:39.983Z,62.55
2018-04-20T03:55:20.320Z,62.46
2018-04-20T03:56:00.771Z,63.22
2018-04-20T03:56:41.138Z,62.55
2018-04-20T03:57:21.542Z,63.22
2018-04-20T03:58:01.947Z,63.22
2018-04-20T03:58:42.379Z,63.6
2018-04-20T03:59:22.710Z,63.13
2018-04-20T04:00:03.126Z,64.09
2018-04-20T04:00:43.580Z,64.15
2018-04-20T04:01:23.946Z,64.05
2018-04-20T04:43:12.433Z,70.56
2018-04-20T04:44:02.874Z,70.36
2018-04-20T04:44:42.411Z,70.75
2018-04-20T04:45:22.818Z,70.65
2018-04-20T04:46:03.197Z,70.75
2018-04-20T04:46:43.584Z,71.03
2018-04-20T04:47:23.966Z,71.13
2018-04-20T04:48:04.397Z,71.8
2018-04-20T04:48:44.760Z,71.13
2018-04-20T04:49:25.112Z,70.84
2018-04-20T04:50:05.534Z,71.22
2018-04-20T04:50:45.957Z,71.51
2018-04-20T04:51:26.329Z,71.8
2018-04-20T04:52:06.720Z,71.22
2018-04-20T04:52:47.139Z,70.36
2018-04-20T04:53:27.913Z,69.89
2018-04-20T04:54:08.021Z,70.07
2018-04-20T04:54:48.379Z,69.73
2018-04-20T04:55:28.771Z,69.64
2018-04-20T04:56:09.226Z,69.44
2018-04-20T04:56:49.571Z,68.58
2018-04-20T04:57:30.033Z,68.87
2018-04-20T04:58:10.905Z,68.58
2018-04-20T04:58:51.327Z,68.58
2018-04-20T04:59:31.761Z,68.49
2018-04-20T05:00:12.150Z,68.13
2018-04-20T05:00:52.551Z,68.33
2018-04-20T05:01:32.924Z,67.56
2018-04-20T05:02:13.303Z,67.18
2018-04-20T05:02:53.798Z,66.7
2018-04-20T05:03:34.440Z,66.99
2018-04-20T05:04:15.427Z,66.7
2018-04-20T05:04:55.797Z,66.51
2018-04-20T05:05:36.232Z,66.22
2018-04-20T05:06:16.676Z,66.51
2018-04-20T05:09:06.979Z,65.01
2018-04-20T05:09:47.009Z,65.11
2018-04-20T05:10:27.466Z,64.34
2018-04-20T05:11:07.859Z,64.18
2018-04-20T05:11:48.261Z,63.51
2018-04-20T05:12:28.664Z,62.84
2018-04-20T05:13:09.086Z,62.65
2018-04-20T05:13:49.485Z,62.26
2018-04-20T05:14:29.952Z,61.69
2018-04-20T05:15:13.233Z,61.53
2018-04-20T05:17:05.497Z,60.96
2018-04-20T05:17:54.257Z,60.6
2018-04-20T05:18:32.674Z,60.12
2018-04-20T05:19:13.025Z,59.83
2018-04-20T05:19:53.448Z,59.36
2018-04-20T05:20:33.889Z,59
2018-04-20T05:21:14.245Z,58.62
2018-04-20T05:21:54.689Z,57.85
2018-04-20T05:22:35.109Z,58.52
2018-04-20T05:23:15.517Z,57.46
2018-04-20T05:23:55.937Z,57.37
2018-04-20T05:25:19.437Z,56.82
2018-04-20T05:25:59.847Z,56.44
2018-04-20T05:26:40.351Z,55.99
2018-04-20T05:27:20.656Z,55.79
2018-04-20T05:28:01.105Z,55.22
2018-04-20T05:28:41.502Z,54.74
2018-04-20T05:29:21.828Z,54.06
2018-04-20T05:30:02.300Z,54.45
2018-04-20T05:30:42.640Z,54.09
2018-04-20T05:31:23.053Z,53.61
2018-04-20T05:32:03.458Z,53.52
2018-04-20T05:32:43.855Z,53.8
2018-04-20T05:33:24.276Z,53.32
2018-04-20T05:34:04.739Z,52.48
2018-04-20T05:34:45.053Z,52.58
2018-04-20T05:35:25.496Z,52.29
2018-04-20T05:36:05.901Z,52.1
2018-04-20T05:36:46.254Z,51.62
2018-04-20T05:37:26.666Z,51.55
2018-04-20T05:38:07.100Z,51.74
2018-04-20T05:38:47.575Z,50.78
2018-04-20T05:39:28.027Z,50.59
2018-04-20T05:40:08.394Z,50.32
2018-04-20T05:40:48.779Z,50.32
2018-04-20T05:41:29.258Z,49.74
2018-04-20T05:42:09.639Z,49.65
2018-04-20T05:42:50.191Z,49.17
2018-04-20T05:43:30.581Z,49
2018-04-20T05:44:10.966Z,49.1
2018-04-20T05:44:51.383Z,48.33
2018-04-20T05:45:31.807Z,48.23
2018-04-20T05:46:12.184Z,48.25
2018-04-20T05:46:52.686Z,47.97
2018-04-20T05:47:33.020Z,47.58
2018-04-20T05:48:13.491Z,47.49
2018-04-20T05:48:53.875Z,46.93
2018-04-20T05:49:34.375Z,46.55
2018-04-20T05:50:14.762Z,46.83
2018-04-20T05:50:55.244Z,46.45
2018-04-20T05:51:35.609Z,46.15
2018-04-20T05:52:16.035Z,46.06
2018-04-20T05:52:56.692Z,45.97
2018-04-20T05:53:37.161Z,45.77
2018-04-20T05:54:17.574Z,45.68
2018-04-20T05:54:58.028Z,45.97
2018-04-20T05:55:38.590Z,46.15
2018-04-20T05:56:18.821Z,46.06
2018-04-20T05:56:59.262Z,46.15
2018-04-20T05:57:39.619Z,45.7
2018-04-20T05:58:20.169Z,45.7
2018-04-20T05:59:00.596Z,45.89
2018-04-20T05:59:41.252Z,45.03
2018-04-20T06:00:22.615Z,45.31
2018-04-20T06:01:03.102Z,44.93
2018-04-20T06:01:43.428Z,44.76
2018-04-20T06:02:23.893Z,44.37
2018-04-20T06:03:04.307Z,44.18
2018-04-20T06:03:44.790Z,44.27
2018-04-20T06:04:28.055Z,44.37
2018-04-20T06:05:05.716Z,44.56
2018-04-20T06:05:46.122Z,44.27
2018-04-20T06:06:27.163Z,44.64
2018-04-20T06:07:07.549Z,44.73
2018-04-20T06:07:48.011Z,44.83
2018-04-20T06:08:28.319Z,44.73
2018-04-20T06:09:08.774Z,45.12
2018-04-20T06:09:49.238Z,45.31
2018-04-20T06:10:29.566Z,45.21
2018-04-20T06:11:10.005Z,45.51
2018-04-20T06:11:50.389Z,45.14
2018-04-20T06:12:30.824Z,44.76
2018-04-20T06:13:11.182Z,45.31
2018-04-20T06:13:51.660Z,44.56
2018-04-20T06:14:34.028Z,44.56
2018-04-20T06:15:14.593Z,44.46
2018-04-20T06:15:54.676Z,44.46
2018-04-20T06:16:35.139Z,43.79
2018-04-20T06:17:18.116Z,43.52
2018-04-20T06:17:58.510Z,43.43
2018-04-20T06:18:39.171Z,43.16
2018-04-20T06:19:20.525Z,42.97
2018-04-20T06:20:02.096Z,42.68
2018-04-20T06:20:42.592Z,42
2018-04-20T06:21:24.040Z,41.93
2018-04-20T06:22:04.154Z,41.83
2018-04-20T06:22:44.544Z,41.44
2018-04-20T06:23:24.905Z,41.73
2018-04-20T06:24:05.835Z,41.54
2018-04-20T06:24:46.730Z,40.28
2018-04-20T06:25:29.479Z,40.57
2018-04-20T06:26:08.296Z,40.77
2018-04-20T06:26:49.630Z,40.3
2018-04-20T06:27:31.778Z,40.2
2018-04-20T06:28:12.134Z,39.82
2018-04-20T06:28:54.214Z,40.2
2018-04-20T06:29:37.226Z,39.82
2018-04-20T06:30:17.604Z,39.92
2018-04-20T06:30:58.187Z,39.72
2018-04-20T06:31:38.405Z,40.2
2018-04-20T06:32:18.775Z,40.19
2018-04-20T06:32:59.228Z,40.09
2018-04-20T06:33:39.793Z,40.3
2018-04-20T06:34:20.158Z,39.43
2018-04-20T06:35:00.551Z,39.9
2018-04-20T06:35:41.338Z,40.11
2018-04-20T06:36:22.022Z,40.57
2018-04-20T06:37:03.047Z,40.57
2018-04-20T06:37:44.407Z,40.59
2018-04-20T06:38:24.907Z,40.38
2018-04-20T06:45:29.082Z,38.68
2018-04-20T06:46:09.036Z,38.87
2018-04-20T06:46:49.579Z,38.68
2018-04-20T06:47:32.396Z,38.87
2018-04-20T06:48:15.532Z,38.87
2018-04-20T06:50:15.159Z,38.97
2018-04-20T06:50:55.606Z,39.36
2018-04-20T06:51:36.260Z,39.26
2018-04-20T06:52:16.623Z,38.68
2018-04-20T06:52:57.045Z,39.14
2018-04-20T06:53:37.503Z,39.34
2018-04-20T06:54:17.906Z,39.82
2018-04-20T06:54:58.455Z,40.11
2018-04-20T06:55:38.855Z,40.5
2018-04-20T06:56:19.286Z,40.57
2018-04-20T06:56:59.672Z,41.44
2018-04-20T06:57:40.139Z,41.35
2018-04-20T06:58:20.582Z,40.98
2018-04-20T06:59:01.030Z,41.08
2018-04-20T06:59:41.428Z,41.27
2018-04-20T07:00:21.926Z,40.2
2018-04-20T07:01:02.256Z,40.52
2018-04-20T07:01:42.672Z,39.64
2018-04-20T07:02:23.214Z,39.55
2018-04-20T07:03:03.672Z,39.37
2018-04-20T07:03:44.093Z,38.99
2018-04-20T07:04:24.547Z,38.78
2018-04-20T07:05:04.973Z,39.67
2018-04-20T07:05:45.547Z,39.36
2018-04-20T07:06:26.773Z,38.99
2018-04-20T07:07:07.294Z,39.18
2018-04-20T07:07:47.861Z,39.09
2018-04-20T07:08:28.614Z,39.18
2018-04-20T07:09:08.981Z,38.79
2018-04-20T07:09:49.402Z,38.43
2018-04-20T07:10:29.871Z,38.23
2018-04-20T07:11:10.231Z,37.85
2018-04-20T07:11:50.686Z,38.02
2018-04-20T07:12:31.198Z,38.02
2018-04-20T07:13:11.776Z,38.79
2018-04-20T07:13:52.581Z,38.89
2018-04-20T07:14:33.265Z,39.28
2018-04-20T07:15:13.732Z,38.89
2018-04-20T07:15:54.216Z,39.55
2018-04-20T07:16:34.675Z,40.42
2018-04-20T07:17:15.093Z,40.5
2018-04-20T07:17:55.443Z,40.2
2018-04-20T07:18:35.897Z,41.17
2018-04-20T07:19:16.466Z,40.78
2018-04-20T07:19:56.854Z,41.17
2018-04-20T07:20:37.339Z,41.39
2018-04-20T07:21:17.775Z,40.42
2018-04-20T07:21:58.146Z,41.17
2018-04-20T07:22:38.575Z,41.19
2018-04-20T07:23:19.097Z,41.19
2018-04-20T07:23:59.522Z,41.19
2018-04-20T07:24:39.971Z,41
2018-04-20T07:25:20.411Z,41.48
2018-04-20T07:26:00.775Z,41.48
2018-04-20T07:26:41.235Z,41.09
2018-04-20T07:27:21.768Z,40.81
2018-04-20T07:28:02.088Z,40.81
2018-04-20T07:28:42.564Z,41.5
2018-04-20T07:29:22.982Z,41.41
2018-04-20T07:30:03.430Z,40.92
2018-04-20T07:30:43.813Z,40.92
2018-04-20T07:31:24.243Z,40.34
2018-04-20T07:32:04.741Z,40.46
2018-04-20T07:32:45.164Z,40.46
2018-04-20T07:33:25.807Z,40.26
2018-04-20T07:34:06.239Z,39.88
2018-04-20T07:34:46.649Z,39.69
2018-04-20T07:35:27.067Z,39.61
2018-04-20T07:36:07.480Z,39.32
2018-04-20T07:36:47.935Z,39.22
2018-04-20T07:37:28.347Z,38.93
2018-04-20T07:38:08.750Z,38.93
2018-04-20T07:38:49.199Z,38.66
2018-04-20T07:39:29.603Z,38.37
2018-04-20T07:40:10.193Z,38.27
2018-04-20T07:40:50.602Z,38.07
2018-04-20T07:41:31.150Z,38.07
2018-04-20T07:42:11.436Z,38.07
2018-04-20T07:42:51.830Z,38.07
2018-04-20T07:43:32.525Z,38.07
2018-04-20T07:44:15.785Z,38.15
2018-04-20T07:44:56.223Z,38.54
2018-04-20T07:45:36.651Z,38.93
2018-04-20T07:46:17.078Z,38.64
2018-04-20T07:46:57.592Z,38.95
2018-04-20T07:47:38.022Z,38.27
2018-04-20T07:48:18.467Z,38
2018-04-20T07:48:58.938Z,37.32
2018-04-20T07:49:39.333Z,36.74
2018-04-20T07:50:19.902Z,36.93
2018-04-20T07:51:00.147Z,36.95
2018-04-20T07:51:40.948Z,36.66
2018-04-20T07:52:21.610Z,36.46
2018-04-20T07:53:02.267Z,35.71
2018-04-20T07:53:42.513Z,35.9
2018-04-20T07:54:22.919Z,35.9
2018-04-20T07:55:03.329Z,35.61
2018-04-20T07:55:43.781Z,35.61
2018-04-20T07:56:24.407Z,35.51
2018-04-20T07:57:04.867Z,35.72
2018-04-20T08:00:30.634Z,34.75
2018-04-20T08:01:08.553Z,34.09
2018-04-20T08:01:49.008Z,34.28
2018-04-20T08:02:29.410Z,34.19
2018-04-20T08:03:09.896Z,34.38
2018-04-20T08:03:50.315Z,34.28
2018-04-20T08:04:30.734Z,34.08
2018-04-20T08:05:11.195Z,33.99
2018-04-20T08:05:51.593Z,34.17
2018-04-20T08:06:32.026Z,33.41
2018-04-20T08:07:12.724Z,33.61
2018-04-20T08:07:53.430Z,33.7
2018-04-20T08:08:33.922Z,34.19
2018-04-20T08:09:14.520Z,33.7
2018-04-20T08:09:55.120Z,33.41
2018-04-20T08:10:35.601Z,33.51
2018-04-20T08:11:16.076Z,33.7
2018-04-20T08:11:56.765Z,34.17
2018-04-20T08:12:37.252Z,34.27
2018-04-20T08:13:17.917Z,34.46
2018-04-20T08:13:59.538Z,34.46
2018-04-20T08:14:40.644Z,35.24
2018-04-20T08:15:22.141Z,35.35
2018-04-20T08:16:03.118Z,34.19
2018-04-20T08:16:52.039Z,34.5
2018-04-20T08:17:34.601Z,34.5
2018-04-20T08:18:15.077Z,34.3
2018-04-20T08:18:55.635Z,34.42
2018-04-20T08:19:36.139Z,32.96
2018-04-20T08:20:16.955Z,33.25
2018-04-20T08:20:57.375Z,32.59
2018-04-20T08:21:37.802Z,32.2
2018-04-20T08:22:18.350Z,32.2
2018-04-20T08:22:59.730Z,32.39
2018-04-20T08:23:40.143Z,32.18
2018-04-20T08:24:20.910Z,31.88
2018-04-20T08:25:01.620Z,32.28
2018-04-20T08:25:42.408Z,32.28
2018-04-20T08:26:22.860Z,32.28
2018-04-20T08:27:03.396Z,33.15
2018-04-20T08:27:44.910Z,32.96
2018-04-20T08:28:25.825Z,32.67
2018-04-20T08:29:05.969Z,33.07
2018-04-20T08:29:46.496Z,32.1
2018-04-20T08:30:26.977Z,33.07
2018-04-20T08:31:08.633Z,32.87
2018-04-20T08:31:49.107Z,33.07
2018-04-20T08:32:30.062Z,32
2018-04-20T08:33:10.361Z,31.81
2018-04-20T08:33:51.071Z,31.21
2018-04-20T08:34:31.602Z,30.83
2018-04-20T08:35:12.098Z,30.93
2018-04-20T08:35:52.765Z,31.22
2018-04-20T08:36:33.553Z,30.83
2018-04-20T08:37:14.218Z,30.44
2018-04-20T08:37:54.950Z,30.93
2018-04-20T08:38:35.493Z,30.93
2018-04-20T08:39:16.007Z,30.83
2018-04-20T08:39:59.489Z,31.13
2018-04-20T08:40:40.354Z,30.55
2018-04-20T08:41:20.520Z,30.07
2018-04-20T08:42:01.550Z,30.36
2018-04-20T08:42:42.389Z,29.99
2018-04-20T08:43:22.756Z,29.89
2018-04-20T08:44:03.160Z,29.79
2018-04-20T08:44:45.619Z,29.3
2018-04-20T08:45:26.074Z,29.4
2018-04-20T08:46:06.557Z,29.6
2018-04-20T08:46:47.223Z,29.81
2018-04-20T08:47:27.693Z,29.71
2018-04-20T08:48:08.107Z,29.71
2018-04-20T08:48:50.754Z,29.14
2018-04-20T08:49:31.178Z,29.04
2018-04-20T08:50:11.512Z,28.67
2018-04-20T08:50:52.187Z,28.19
2018-04-20T08:51:32.868Z,27.8
2018-04-20T08:52:13.836Z,27.31
2018-04-20T08:52:57.843Z,27.41
2018-04-20T08:53:37.704Z,28.19
2018-04-20T08:54:19.567Z,28.38
2018-04-20T08:55:00.079Z,28.28
2018-04-20T08:55:40.444Z,27.61
2018-04-20T08:56:20.890Z,27.9
2018-04-20T08:57:01.387Z,27.61
2018-04-20T08:57:41.821Z,27.22
2018-04-20T08:58:22.687Z,27.13
2018-04-20T08:59:03.119Z,26.54
2018-04-20T08:59:44.187Z,26.76
2018-04-20T09:00:24.366Z,26.37
2018-04-20T09:01:05.084Z,26.17
2018-04-20T09:01:45.428Z,26.46
2018-04-20T09:02:25.873Z,26.37
2018-04-20T09:03:06.262Z,26.07
2018-04-20T09:03:47.330Z,25.79
2018-04-20T09:04:27.832Z,25.6
2018-04-20T09:05:08.422Z,25.89
2018-04-20T09:05:49.571Z,26.37
2018-04-20T09:06:30.191Z,26.74
2018-04-20T09:07:10.749Z,27.34
2018-04-20T09:07:51.328Z,26.84
2018-04-20T09:08:32.147Z,26.64
2018-04-20T09:09:12.976Z,27.13
2018-04-20T09:09:53.462Z,26.74
2018-04-20T09:10:33.949Z,26.35
2018-04-20T09:11:14.329Z,26.17
2018-04-20T09:11:54.813Z,26.27
2018-04-20T09:12:35.220Z,26.46
2018-04-20T09:13:15.681Z,26.28
2018-04-20T09:13:56.145Z,25.78
2018-04-20T09:14:36.834Z,25.88
2018-04-20T09:15:17.080Z,25.79
2018-04-20T09:15:57.558Z,25.89
2018-04-20T09:16:38.017Z,25.79
2018-04-20T09:17:18.442Z,25.89
2018-04-20T09:17:58.955Z,25.42
2018-04-20T09:18:39.546Z,25.42
2018-04-20T09:19:19.978Z,25.31
2018-04-20T09:20:00.413Z,25.5
2018-04-20T09:20:40.813Z,25.5
2018-04-20T09:21:21.217Z,25.31
2018-04-20T09:22:02.220Z,25.11
2018-04-20T09:22:42.369Z,25.5
2018-04-20T09:23:23.733Z,25.49
2018-04-20T09:24:04.151Z,25.78
2018-04-20T09:24:44.509Z,26.45
2018-04-20T09:25:24.862Z,26.84
2018-04-20T09:26:05.312Z,26.66
2018-04-20T09:26:45.766Z,26.56
2018-04-20T09:27:26.129Z,26.64
2018-04-20T09:28:06.625Z,26.64
2018-04-20T09:28:47.324Z,27.13
2018-04-20T09:29:27.822Z,26.64
2018-04-20T09:30:08.277Z,26.46
2018-04-20T09:30:48.680Z,26.17
2018-04-20T09:31:29.317Z,25.78
2018-04-20T09:32:09.712Z,26.06
2018-04-20T09:32:50.150Z,26.35
2018-04-20T09:33:30.548Z,26.17
2018-04-20T09:34:10.996Z,26.46
2018-04-20T09:34:51.500Z,25.79
2018-04-20T09:35:32.029Z,25.5
2018-04-20T09:36:12.523Z,25.71
2018-04-20T09:36:53.021Z,26
2018-04-20T09:37:33.516Z,25.82
2018-04-20T09:38:13.980Z,25.04
2018-04-20T09:38:54.665Z,24.44
2018-04-20T09:39:35.028Z,24.82
2018-04-20T09:40:15.633Z,24.43
2018-04-20T09:40:56.290Z,24.63
2018-04-20T09:41:36.673Z,25.22